KAGO/AGO METAR and TAF weather

Enter ICAO airport designator
Station Type Date Time Source
KAGO METAR 2023/02/08 23:35 UTC NOAA

KAGO 082335Z AUTO 32005KT 1SM BR BKN005 OVC026 18/17 A2982 RMK A01


Station Type Date Time Source
KAGO Decoded METAR 2023/02/08 23:35 UTC NOAA

Station name not available
Feb 08, 2023 - 06:35 PM EST / 2023.02.08 2335 UTC
Wind: from the NW (320 degrees) at 6 MPH (5 KT):0
Visibility: 1 mile(s):0
Sky conditions: overcast
Weather: mist
Temperature: 64 F (18 C)
Dew Point: 62 F (17 C)
Relative Humidity: 93%
Pressure (altimeter): 29.82 in. Hg (1009 hPa)
ob: KAGO 082335Z AUTO 32005KT 1SM BR BKN005 OVC026 18/17 A2982 RMK A01
cycle: 23

Station Type Date Time Source
KAGO TAF UTC NOAA

Error!

Example: see airport list